Wakeman, Ohio
Current Conditions -  °F | °C
As of 7:53 PM on Friday 24 Oct 2014 (Local Time) from KLPR Reporting Station
Overcast Overcast  
Wind Chill: 13°   Ceiling: 4700
Heat Index: 13°   Visibility: 10mi
Dew Point:   Wind: 3mph
Humidity: 69%   Direction: 240°WSW
Pressure: 30.01"   Gusts: NA
Location:  41.25°N, 82.4°W
Report Text: KLPR 242353Z AUTO 24003KT 10SM OVC047 13/08 A3001 RMK AO2 SLP166 T01330078 10172 20128 53003 TSNO
Loading
Personal Weather Stations






























Interactive Weather Map
Tropical Storm Tracking
New forecast layout! Learn more

10-Day Weather Forecast

Advertisements
Track Severe Weather on mobile